UUDD Airport Information

Runway Information
Runway 14C Length 8531 ft width 148 ft
Elevation 585 ft Threshold 0 ft Heading 146
Runway 32C Length 8531 ft Width 148 ft
Elevation 538 ft Threshold 0 ft Heading 326
Runway 14L Length 12448 ft width 174 ft
Elevation 551 ft Threshold 0 ft Heading 146
Runway 32R Length 12448 ft Width 174 ft
Elevation 519 ft Threshold 0 ft Heading 326
Runway 14R Length 11483 ft width 230 ft
Elevation 588 ft Threshold 0 ft Heading 146
Runway 32L Length 11483 ft Width 230 ft
Elevation 527 ft Threshold 0 ft Heading 326
Airport Frequencies
Type APP Name APP Frequency 120.6 MHZ
Type ATIS Name ATIS Frequency 128.3 MHZ
Type CLD Name DELIVERY Frequency 123.75 MHZ
Type GND Name TAXIING Frequency 119 MHZ
Type MISC Name TRANSIT Frequency 129.15 MHZ
Type PMSV Name VOLMET Frequency 127.875 MHZ
Type RDR Name KRUG Frequency 127.7 MHZ
Type RMP Name APRON Frequency 130.6 MHZ
Type TWR Name TWR Frequency 118.6 MHZ
Airport Navaids
Type NDB Name Domodedovo Frequency 437 KHZ
Type NDB Name Domodedovo Frequency 659 KHZ
Type NDB Name Domodedovo Frequency 659 KHZ
Type NDB Name Domodedovo Frequency 437 KHZ
Type NDB Name Domodedovo Frequency 887 KHZ
Type NDB Name Domodedovo Frequency 320 KHZ
Type NDB Name Domodedovo Frequency 320 KHZ
Type NDB Name Domodedovo Frequency 887 KHZ
Airport Weather Information & NOTAM
ADDS - METARS form results

(0942 UTC 19 September 2018)
Data provider http://aviationweather.gov/metar/data/
 
METAR text: UUDD 190930Z 26007MPS CAVOK 21/11 Q1014 R88/010095 NOSIG
Conditions at: UUDD (MOSCOW/DOMODEDOV, RU) observed 0930 UTC 19 September 2018
Temperature: 21.0°C (70°F)
Dewpoint: 11.0°C (52°F) [RH = 53%]
Pressure (altimeter): 29.94 inches Hg (1014.0 mb)
Winds: from the W (260 degrees) at 16 MPH (14 knots; 7.2 m/s)
Visibility: 6 or more miles (10+ km)
Ceiling: ceiling and visibility are OK
Clouds: unknown
Weather: no significant weather observed at this time

METAR text: UUDD 190900Z 26007MPS CAVOK 20/11 Q1015 WS R32L R88/010095 NOSIG
Conditions at: UUDD (MOSCOW/DOMODEDOV, RU) observed 0900 UTC 19 September 2018
Temperature: 20.0°C (68°F)
Dewpoint: 11.0°C (52°F) [RH = 56%]
Pressure (altimeter): 29.97 inches Hg (1015.0 mb)
Winds: from the W (260 degrees) at 16 MPH (14 knots; 7.2 m/s)
Visibility: 6 or more miles (10+ km)
Ceiling: ceiling and visibility are OK
Clouds: unknown
Weather: no significant weather observed at this time

Forecast for: UUDD (MOSCOW/DOMODEDOV, RU)
Text: TAF UUDD 190758Z 1909/2015 27007G13MPS 9999 SCT020 TX22/1912Z TN11/2002Z
Forecast period: 0900 UTC 19 September 2018 to 1500 UTC 20 September 2018
Forecast type: FROM: standard forecast or significant change
Winds: from the W (270 degrees) at 16 MPH (14 knots; 7.2 m/s)
gusting to 29 MPH (25 knots; 12.9 m/s)
Visibility: 6 or more miles 10+ km)
Ceiling: at least 12,000 feet AGL
Clouds: scattered clouds at 2000 feet AGL
Weather: no significant weather forecast for this period